Time;durP1;ratioP1;P1;durP2;ratioP2;P2;SDS_P1;SDS_P2;PMS_P1;PMS_P2;Temp;Humidity;BMP_temperature;BMP_pressure;BME280_temperature;BME280_humidity;BME280_pressure;Samples;Min_cycle;Max_cycle;Signal;HPM_P1;HPM_P2
2022/04/06 00:01:48;;;;;;;6.43;5.93;;;;;;;6.94;100.00;96307.09;5027677;28;20394;-53
2022/04/06 00:04:17;;;;;;;6.53;6.03;;;;;;;6.98;100.00;96297.03;5004347;28;20211;-54
2022/04/06 00:06:46;;;;;;;6.93;5.60;;;;;;;6.90;100.00;96294.50;5025876;28;20208;-57
2022/04/06 00:09:18;;;;;;;6.40;5.67;;;;;;;6.88;100.00;96297.31;5024877;28;20269;-56
2022/04/06 00:11:46;;;;;;;5.43;5.13;;;;;;;6.74;100.00;96300.78;4982330;28;20879;-57
2022/04/06 00:14:15;;;;;;;6.00;5.43;;;;;;;6.78;100.00;96296.78;5007135;28;20215;-55
2022/04/06 00:16:43;;;;;;;5.37;4.87;;;;;;;6.76;100.00;96299.56;5012500;28;20208;-55
2022/04/06 00:19:12;;;;;;;6.13;5.73;;;;;;;6.71;100.00;96293.25;5024244;28;20319;-54
2022/04/06 00:21:41;;;;;;;6.00;5.40;;;;;;;6.66;100.00;96278.81;4996970;28;20231;-55
2022/04/06 00:24:10;;;;;;;5.47;5.07;;;;;;;6.77;100.00;96297.78;5028711;28;20227;-53
2022/04/06 00:26:39;;;;;;;6.00;5.50;;;;;;;6.65;100.00;96286.88;4990488;28;20330;-59
2022/04/06 00:29:07;;;;;;;5.13;4.73;;;;;;;6.60;100.00;96289.22;5010235;28;20308;-56
2022/04/06 00:31:35;;;;;;;5.13;4.80;;;;;;;6.57;100.00;96284.34;5022726;28;20447;-56
2022/04/06 00:34:04;;;;;;;6.30;5.73;;;;;;;6.76;100.00;96285.59;5026217;28;20664;-55
2022/04/06 00:36:32;;;;;;;5.50;5.10;;;;;;;6.80;100.00;96281.59;5004610;28;20731;-53
2022/04/06 00:39:02;;;;;;;5.17;4.87;;;;;;;6.65;100.00;96285.06;5024722;28;20200;-55
2022/04/06 00:41:30;;;;;;;5.43;4.87;;;;;;;6.62;100.00;96284.59;5013164;28;20284;-54
2022/04/06 00:44:13;;;;;;;5.17;4.83;;;;;;;6.78;100.00;96284.41;5003624;28;20928;-58
2022/04/06 00:46:42;;;;;;;5.10;4.70;;;;;;;6.72;100.00;96282.50;5008809;28;20235;-57
2022/04/06 00:49:14;;;;;;;5.23;4.83;;;;;;;6.69;100.00;96288.13;5027385;28;20212;-57
2022/04/06 00:51:44;;;;;;;4.63;4.33;;;;;;;6.88;100.00;96285.97;5005306;28;20249;-57
2022/04/06 00:54:15;;;;;;;4.30;4.00;;;;;;;6.90;100.00;96279.50;5023009;28;20995;-55
2022/04/06 00:56:45;;;;;;;4.77;4.37;;;;;;;6.92;100.00;96277.50;5023346;28;20265;-55
2022/04/06 00:59:14;;;;;;;4.40;4.10;;;;;;;6.77;100.00;96279.34;4984362;28;20270;-56
2022/04/06 01:01:42;;;;;;;4.50;4.10;;;;;;;6.83;100.00;96278.59;5002701;28;20667;-56
2022/04/06 01:04:11;;;;;;;4.47;4.17;;;;;;;6.74;100.00;96285.78;5023956;28;20204;-55
2022/04/06 01:06:39;;;;;;;4.23;3.97;;;;;;;6.78;100.00;96287.03;5000688;28;20278;-55
2022/04/06 01:09:07;;;;;;;4.03;3.73;;;;;;;6.65;100.00;96279.81;5019950;28;20634;-53
2022/04/06 01:11:37;;;;;;;6.00;4.50;;;;;;;6.78;100.00;96273.06;5026661;28;20299;-58
2022/04/06 01:14:06;;;;;;;4.63;4.23;;;;;;;6.88;100.00;96268.34;4986589;28;20385;-54
2022/04/06 01:16:34;;;;;;;4.73;4.43;;;;;;;6.88;100.00;96270.97;5006478;28;20262;-57
2022/04/06 01:19:02;;;;;;;4.67;4.27;;;;;;;6.70;100.00;96249.47;5023915;28;20234;-56
2022/04/06 01:21:31;;;;;;;4.60;4.30;;;;;;;6.89;100.00;96256.81;5023411;28;20247;-57
2022/04/06 01:24:00;;;;;;;4.53;4.23;;;;;;;6.90;100.00;96261.06;5001172;28;20287;-56
2022/04/06 01:26:28;;;;;;;4.90;4.40;;;;;;;7.07;100.00;96260.88;5015558;28;20239;-55
2022/04/06 01:28:57;;;;;;;4.67;4.37;;;;;;;7.15;100.00;96259.94;4985911;28;21051;-55
2022/04/06 01:31:25;;;;;;;4.83;4.53;;;;;;;7.03;100.00;96260.44;5021926;28;20312;-57
2022/04/06 01:33:53;;;;;;;5.47;5.07;;;;;;;7.00;100.00;96257.34;5005875;28;20269;-58
2022/04/06 01:36:21;;;;;;;5.00;4.60;;;;;;;6.95;100.00;96268.44;5024765;28;20294;-56
2022/04/06 01:38:49;;;;;;;5.57;5.17;;;;;;;7.10;100.00;96263.94;5002667;28;21055;-58
2022/04/06 01:41:19;;;;;;;5.07;4.67;;;;;;;7.07;100.00;96255.63;5022819;28;20261;-54
2022/04/06 01:43:47;;;;;;;7.17;5.07;;;;;;;6.96;100.00;96249.00;5022875;28;20871;-55
2022/04/06 01:46:15;;;;;;;5.60;5.20;;;;;;;6.98;100.00;96246.16;4985149;28;21027;-54
2022/04/06 01:54:17;;;;;;;5.37;4.97;;;;;;;6.96;100.00;96243.72;4946793;28;20321;-53
2022/04/06 01:57:29;;;;;;;5.47;5.00;;;;;;;6.92;100.00;96238.00;4902028;28;20222;-54
2022/04/06 01:59:58;;;;;;;5.20;4.80;;;;;;;6.89;100.00;96233.09;4942040;28;20700;-55
2022/04/06 02:02:30;;;;;;;5.23;4.73;;;;;;;6.95;100.00;96234.19;4902018;28;20305;-52
2022/04/06 02:05:00;;;;;;;5.67;5.17;;;;;;;7.00;100.00;96242.34;4932060;28;20226;-60
2022/04/06 02:07:28;;;;;;;4.93;4.57;;;;;;;6.95;100.00;96226.31;4938724;28;20210;-55
2022/04/06 02:09:58;;;;;;;5.03;4.63;;;;;;;6.96;100.00;96227.94;4940808;28;20211;-58
2022/04/06 02:12:27;;;;;;;5.13;4.73;;;;;;;7.02;100.00;96235.09;4916595;28;20325;-56
2022/04/06 02:14:55;;;;;;;5.80;5.30;;;;;;;7.02;100.00;96223.75;4937305;28;20618;-56
2022/04/06 02:17:27;;;;;;;5.20;4.80;;;;;;;6.98;100.00;96233.81;4902237;28;20219;-59
2022/04/06 02:19:56;;;;;;;6.37;5.87;;;;;;;7.06;100.00;96233.72;4923812;28;20631;-56
2022/04/06 02:22:24;;;;;;;5.63;4.80;;;;;;;7.04;100.00;96229.66;4940228;28;20393;-54
2022/04/06 02:24:52;;;;;;;5.00;4.70;;;;;;;7.00;100.00;96231.00;4933822;28;20412;-53
2022/04/06 02:27:21;;;;;;;4.93;4.53;;;;;;;6.94;100.00;96238.63;4912333;28;20257;-57
2022/04/06 02:29:49;;;;;;;5.43;5.03;;;;;;;6.97;100.00;96226.09;4961052;28;20886;-58
2022/04/06 02:32:17;;;;;;;4.73;4.43;;;;;;;6.97;100.00;96228.72;4964251;28;20763;-60
2022/04/06 02:34:53;;;;;;;5.53;5.13;;;;;;;6.80;100.00;96210.53;4982844;28;20310;-54
2022/04/06 02:37:21;;;;;;;4.60;4.30;;;;;;;6.92;100.00;96219.56;5008134;28;20299;-59
2022/04/06 02:39:50;;;;;;;4.53;4.23;;;;;;;6.85;100.00;96223.94;5003599;28;20400;-58
2022/04/06 02:42:18;;;;;;;5.10;4.70;;;;;;;6.91;100.00;96220.56;4982311;28;20239;-61
2022/04/06 02:44:46;;;;;;;6.53;4.90;;;;;;;6.88;100.00;96213.03;5000045;28;20913;-58
2022/04/06 02:47:14;;;;;;;4.70;4.40;;;;;;;6.79;100.00;96211.53;5007812;28;20204;-57
2022/04/06 02:49:42;;;;;;;4.97;4.60;;;;;;;6.79;100.00;96211.53;4940816;28;20340;-57
2022/04/06 02:52:12;;;;;;;5.10;4.67;;;;;;;6.89;100.00;96219.13;4997426;28;20299;-57
2022/04/06 02:54:40;;;;;;;4.70;4.40;;;;;;;6.92;100.00;96210.88;5005894;28;20212;-54
2022/04/06 02:57:08;;;;;;;4.73;4.40;;;;;;;6.85;100.00;96218.69;4960280;28;20620;-56
2022/04/06 02:59:39;;;;;;;5.20;4.70;;;;;;;6.85;100.00;96213.41;5007622;28;20681;-59
2022/04/06 03:02:07;;;;;;;4.50;4.13;;;;;;;6.92;100.00;96216.94;5003880;28;20339;-58
2022/04/06 03:04:35;;;;;;;4.80;4.40;;;;;;;6.87;100.00;96206.16;4950364;28;20212;-54
2022/04/06 03:07:03;;;;;;;5.27;4.87;;;;;;;6.94;100.00;96211.50;5004280;28;20200;-52
2022/04/06 03:09:33;;;;;;;4.90;4.50;;;;;;;6.97;100.00;96220.81;5006433;28;20204;-58
2022/04/06 03:12:01;;;;;;;4.83;4.53;;;;;;;6.97;100.00;96205.03;4977771;28;20605;-57
2022/04/06 03:14:29;;;;;;;5.27;4.83;;;;;;;6.95;100.00;96215.75;5004859;28;20711;-54
2022/04/06 03:16:57;;;;;;;4.80;4.50;;;;;;;6.88;100.00;96215.69;5005440;28;20204;-55
2022/04/06 03:19:25;;;;;;;7.00;4.93;;;;;;;6.88;100.00;96217.50;4953933;28;20266;-58
2022/04/06 03:21:53;;;;;;;4.97;4.67;;;;;;;6.97;100.00;96215.56;5019483;28;20247;-55
2022/04/06 03:24:21;;;;;;;4.93;4.53;;;;;;;6.96;100.00;96212.13;5023961;28;20234;-56
2022/04/06 03:26:51;;;;;;;4.97;4.57;;;;;;;6.86;100.00;96207.16;5015669;28;20207;-57
2022/04/06 03:29:19;;;;;;;4.83;4.53;;;;;;;6.95;100.00;96208.66;5009730;28;20554;-59
2022/04/06 03:31:48;;;;;;;5.13;4.73;;;;;;;6.99;100.00;96210.94;5026873;28;20306;-57
2022/04/06 03:34:16;;;;;;;5.13;4.73;;;;;;;6.99;100.00;96209.13;4983191;28;20266;-58
2022/04/06 03:36:44;;;;;;;5.60;5.10;;;;;;;6.92;100.00;96203.78;5002916;28;20775;-57
2022/04/06 03:39:12;;;;;;;5.40;5.00;;;;;;;6.97;100.00;96205.84;5019069;28;20211;-56
2022/04/06 03:41:40;;;;;;;6.00;5.60;;;;;;;6.96;100.00;96198.97;5027676;28;20231;-60
2022/04/06 03:44:10;;;;;;;5.10;4.80;;;;;;;6.96;100.00;96206.88;5002894;28;20839;-55
2022/04/06 03:46:38;;;;;;;5.27;4.97;;;;;;;6.98;100.00;96209.28;5026828;28;20962;-58
2022/04/06 03:49:08;;;;;;;5.97;5.47;;;;;;;6.92;100.00;96203.78;4986979;28;20624;-53
2022/04/06 03:51:36;;;;;;;4.93;4.53;;;;;;;6.89;100.00;96198.06;5012311;28;20410;-57
2022/04/06 03:54:04;;;;;;;5.60;5.20;;;;;;;6.86;100.00;96199.25;5026042;28;20283;-58
2022/04/06 03:56:33;;;;;;;5.20;4.80;;;;;;;6.85;100.00;96200.25;5028036;28;20578;-53
2022/04/06 03:59:01;;;;;;;5.97;4.77;;;;;;;6.83;100.00;96190.91;4999011;28;20208;-54
2022/04/06 04:01:31;;;;;;;5.73;5.23;;;;;;;6.81;100.00;96189.25;5027937;28;20471;-56
2022/04/06 04:03:59;;;;;;;5.87;5.47;;;;;;;6.80;100.00;96185.00;5025281;28;20207;-57
2022/04/06 04:06:27;;;;;;;4.80;4.50;;;;;;;6.91;100.00;96190.81;4972037;28;20212;-57
2022/04/06 04:08:55;;;;;;;4.90;4.60;;;;;;;6.87;100.00;96198.25;5025825;28;20307;-55
2022/04/06 04:11:23;;;;;;;4.80;4.50;;;;;;;6.92;100.00;96195.88;5029815;28;20223;-57
2022/04/06 04:13:51;;;;;;;4.90;4.30;;;;;;;6.83;100.00;96193.56;5023576;28;20592;-59
2022/04/06 04:16:19;;;;;;;5.10;4.60;;;;;;;6.91;100.00;96194.25;5012573;28;20208;-57
2022/04/06 04:18:49;;;;;;;4.53;4.23;;;;;;;6.92;100.00;96195.88;5026738;28;20611;-59
2022/04/06 04:21:32;;;;;;;4.60;4.30;;;;;;;6.84;100.00;96195.19;4971381;28;20437;-58
2022/04/06 04:24:00;;;;;;;5.30;4.90;;;;;;;6.84;100.00;96192.56;5025017;28;20249;-56
2022/04/06 04:26:29;;;;;;;5.63;5.03;;;;;;;6.82;100.00;96184.81;5028129;28;20200;-53
2022/04/06 04:28:57;;;;;;;4.63;4.37;;;;;;;6.83;100.00;96186.44;5011769;28;20215;-55
2022/04/06 04:31:25;;;;;;;7.70;5.30;;;;;;;6.82;100.00;96182.19;5022189;28;20935;-58
2022/04/06 04:33:55;;;;;;;4.97;4.67;;;;;;;6.89;100.00;96184.91;5024834;28;20211;-54
2022/04/06 04:36:24;;;;;;;5.30;4.80;;;;;;;6.71;100.00;96166.88;4973909;28;20225;-55
2022/04/06 04:38:52;;;;;;;4.80;4.47;;;;;;;6.73;100.00;96172.78;5024155;28;20226;-55
2022/04/06 04:41:20;;;;;;;5.60;5.10;;;;;;;6.66;100.00;96184.03;5025317;28;20226;-58
2022/04/06 04:43:48;;;;;;;5.33;4.47;;;;;;;6.81;100.00;96181.34;5028269;28;20666;-55
2022/04/06 04:46:16;;;;;;;5.40;4.90;;;;;;;6.90;100.00;96189.16;5006418;28;20345;-59
2022/04/06 04:48:45;;;;;;;5.33;4.93;;;;;;;6.77;100.00;96184.56;5030260;28;20284;-58
2022/04/06 04:51:15;;;;;;;5.30;4.90;;;;;;;6.82;100.00;96184.81;4987892;28;20228;-57
2022/04/06 04:53:43;;;;;;;5.93;5.43;;;;;;;6.75;100.00;96184.72;5010616;28;20203;-57
2022/04/06 04:56:11;;;;;;;5.90;5.50;;;;;;;6.73;100.00;96178.84;5024967;28;20196;-57
2022/04/06 04:58:39;;;;;;;5.00;4.70;;;;;;;6.73;100.00;96176.22;5027893;28;20236;-57
2022/04/06 05:01:08;;;;;;;5.77;5.37;;;;;;;6.78;100.00;96173.03;4983919;28;20946;-57
2022/04/06 05:03:36;;;;;;;6.33;5.83;;;;;;;6.80;100.00;96176.28;5024691;28;20223;-55
2022/04/06 05:06:04;;;;;;;6.57;6.03;;;;;;;6.85;100.00;96183.66;5023228;28;20594;-59
2022/04/06 05:08:33;;;;;;;7.97;6.20;;;;;;;6.82;100.00;96184.81;4968025;28;20216;-55
2022/04/06 05:11:01;;;;;;;6.37;5.87;;;;;;;6.86;100.00;96187.91;5025689;28;20233;-57
2022/04/06 05:13:29;;;;;;;7.10;6.60;;;;;;;6.92;100.00;96187.97;5021881;28;20480;-56
2022/04/06 05:15:58;;;;;;;7.87;7.17;;;;;;;6.83;100.00;96186.44;4981292;28;20211;-57
2022/04/06 05:18:29;;;;;;;8.07;7.37;;;;;;;6.93;100.00;96184.34;5028185;28;20207;-57
2022/04/06 05:20:57;;;;;;;9.27;8.27;;;;;;;6.92;100.00;96184.53;5010115;28;20752;-54
2022/04/06 05:23:25;;;;;;;9.27;8.37;;;;;;;6.87;100.00;96187.72;4975605;28;20224;-54
2022/04/06 05:25:55;;;;;;;8.60;7.80;;;;;;;6.91;100.00;96182.91;5018708;28;20315;-52
2022/04/06 05:28:23;;;;;;;8.20;7.37;;;;;;;6.88;100.00;96178.81;5024832;28;20223;-53
2022/04/06 05:30:51;;;;;;;8.83;8.13;;;;;;;6.92;100.00;96185.34;4999497;28;20212;-55
2022/04/06 05:33:20;;;;;;;8.87;7.97;;;;;;;7.01;100.00;96185.22;5021495;28;20212;-58
2022/04/06 05:35:48;;;;;;;9.60;8.70;;;;;;;6.92;100.00;96182.69;5020341;28;20207;-56
2022/04/06 05:38:16;;;;;;;7.97;7.37;;;;;;;6.94;100.00;96190.44;4988329;28;20726;-56
2022/04/06 05:40:44;;;;;;;9.10;7.60;;;;;;;7.04;100.00;96187.50;4998776;28;20277;-57
2022/04/06 05:43:14;;;;;;;8.17;7.57;;;;;;;6.96;100.00;96191.06;5027818;28;20223;-54
2022/04/06 05:45:42;;;;;;;8.40;7.50;;;;;;;7.05;100.00;96189.13;4996643;28;20203;-56
2022/04/06 05:48:11;;;;;;;14.03;12.07;;;;;;;7.02;100.00;96186.88;5027903;28;20230;-57
2022/04/06 05:50:39;;;;;;;12.67;11.33;;;;;;;7.01;100.00;96187.84;5024745;28;20650;-53
2022/04/06 05:53:07;;;;;;;9.10;8.30;;;;;;;7.07;100.00;96193.19;4988192;28;20717;-55
2022/04/06 05:55:35;;;;;;;8.37;7.77;;;;;;;7.08;100.00;96186.94;5022902;28;20204;-57
2022/04/06 05:58:04;;;;;;;8.13;7.53;;;;;;;7.12;100.00;96186.56;5018770;28;20287;-52
2022/04/06 06:00:33;;;;;;;8.93;8.13;;;;;;;7.20;100.00;96182.00;5018316;28;20300;-54
2022/04/06 06:03:02;;;;;;;8.60;7.80;;;;;;;7.23;100.00;96181.63;5009055;28;20672;-59
2022/04/06 06:05:30;;;;;;;7.47;6.77;;;;;;;7.33;100.00;96185.75;5025569;28;20695;-57
2022/04/06 06:07:58;;;;;;;7.50;6.90;;;;;;;7.41;100.00;96188.28;4980095;28;20223;-55
2022/04/06 06:10:26;;;;;;;8.53;7.77;;;;;;;7.41;100.00;96188.28;5023844;28;20196;-61
2022/04/06 06:12:54;;;;;;;8.93;8.13;;;;;;;7.39;100.00;96190.28;5019066;28;20747;-59
2022/04/06 06:15:22;;;;;;;8.57;7.77;;;;;;;7.52;100.00;96189.59;5023082;28;20232;-51
2022/04/06 06:17:52;;;;;;;8.57;7.87;;;;;;;7.58;100.00;96191.50;4999227;28;20208;-58
2022/04/06 06:20:20;;;;;;;9.07;7.50;;;;;;;7.58;100.00;96190.66;5028433;28;20231;-57
2022/04/06 06:22:54;;;;;;;8.07;7.37;;;;;;;7.62;100.00;96182.19;4987862;28;20806;-57
2022/04/06 06:25:22;;;;;;;8.23;7.53;;;;;;;7.68;100.00;96191.13;5025424;28;20204;-56
2022/04/06 06:27:50;;;;;;;8.30;7.57;;;;;;;7.69;100.00;96184.88;5021866;28;20210;-57
2022/04/06 06:30:18;;;;;;;8.53;7.83;;;;;;;7.59;100.00;96171.19;5029508;28;20203;-58
2022/04/06 06:32:46;;;;;;;7.90;7.10;;;;;;;7.65;100.00;96181.81;5005004;28;20227;-55
2022/04/06 06:35:16;;;;;;;8.53;7.60;;;;;;;7.62;100.00;96182.19;5030039;28;20224;-59
2022/04/06 06:37:46;;;;;;;7.63;6.97;;;;;;;7.68;100.00;96185.88;4990920;28;20283;-56
2022/04/06 06:40:14;;;;;;;7.37;6.80;;;;;;;7.70;100.00;96186.50;5023840;28;20591;-55
2022/04/06 06:42:42;;;;;;;7.30;6.70;;;;;;;7.77;100.00;96183.91;5021268;28;20228;-55
2022/04/06 06:45:11;;;;;;;7.30;6.80;;;;;;;7.87;100.00;96181.75;5031648;28;20231;-55
2022/04/06 06:47:40;;;;;;;7.17;6.47;;;;;;;7.93;100.00;96177.56;5009557;28;20212;-53
2022/04/06 06:50:09;;;;;;;7.77;7.03;;;;;;;7.96;100.00;96178.00;5027662;28;20238;-57
2022/04/06 06:52:39;;;;;;;7.77;7.07;;;;;;;7.97;100.00;96181.44;5027073;28;20835;-53
2022/04/06 06:55:14;;;;;;;6.33;5.83;;;;;;;8.18;100.00;96177.13;4987827;28;20302;-53
2022/04/06 06:57:42;;;;;;;7.80;6.60;;;;;;;8.22;100.00;96173.88;5018765;28;20625;-54
2022/04/06 07:00:11;;;;;;;6.70;6.20;;;;;;;8.26;100.00;96172.47;5029483;28;20204;-55
2022/04/06 07:02:41;;;;;;;7.07;6.57;;;;;;;8.35;100.00;96169.72;5010329;28;20223;-56
2022/04/06 07:05:10;;;;;;;6.97;6.33;;;;;;;8.41;100.00;96168.94;5023308;28;20231;-54
2022/04/06 07:07:52;;;;;;;7.07;6.23;;;;;;;8.43;100.00;96166.91;5023246;28;20207;-56
2022/04/06 07:10:21;;;;;;;7.23;6.70;;;;;;;8.51;100.00;96177.31;4990593;28;20227;-55
2022/04/06 07:12:49;;;;;;;11.47;10.27;;;;;;;8.52;100.00;96175.47;5026087;28;20383;-58
2022/04/06 07:15:18;;;;;;;7.23;6.63;;;;;;;8.59;100.00;96163.16;5023027;28;20243;-58
2022/04/06 07:17:51;;;;;;;7.00;6.37;;;;;;;8.68;100.00;96169.06;5026710;28;20409;-56
2022/04/06 07:20:19;;;;;;;5.60;5.20;;;;;;;8.74;100.00;96155.09;5004435;28;20611;-59
2022/04/06 07:22:47;;;;;;;6.40;5.80;;;;;;;8.79;100.00;96157.13;5023427;28;20545;-55
2022/04/06 07:25:17;;;;;;;7.70;6.40;;;;;;;8.90;100.00;96163.66;5028494;28;20228;-58
2022/04/06 07:27:45;;;;;;;6.47;5.97;;;;;;;9.01;100.00;96160.44;4979306;28;20227;-52
2022/04/06 07:30:14;;;;;;;6.07;5.57;;;;;;;9.07;100.00;96156.19;5024410;28;20493;-57
2022/04/06 07:32:42;;;;;;;7.10;6.40;;;;;;;9.16;100.00;96157.63;5021360;28;20224;-55
2022/04/06 07:35:10;;;;;;;6.10;5.60;;;;;;;9.06;100.00;96155.38;5007195;28;20208;-59
2022/04/06 07:37:39;;;;;;;6.63;6.03;;;;;;;9.06;100.00;96150.09;5020871;28;20676;-55
2022/04/06 07:40:08;;;;;;;6.20;5.70;;;;;;;9.03;100.00;96153.13;5028698;28;20199;-60
2022/04/06 07:42:39;;;;;;;5.70;5.30;;;;;;;9.03;100.00;96154.97;4982235;28;20373;-54
2022/04/06 07:45:09;;;;;;;7.13;5.93;;;;;;;9.07;100.00;96140.34;5023676;28;20247;-55
2022/04/06 07:47:38;;;;;;;5.60;5.20;;;;;;;9.06;100.00;96144.00;5023933;28;20196;-55
2022/04/06 07:50:07;;;;;;;6.20;5.80;;;;;;;9.07;100.00;96151.72;5004533;28;20695;-58
2022/04/06 07:52:37;;;;;;;5.63;5.23;;;;;;;9.16;100.00;96152.34;5025437;28;20254;-56
2022/04/06 07:55:08;;;;;;;5.33;4.80;;;;;;;9.12;100.00;96157.25;5027705;28;20235;-60
2022/04/06 07:57:38;;;;;;;6.00;4.80;;;;;;;9.22;100.00;96151.53;4983517;28;20208;-54
2022/04/06 08:00:08;;;;;;;6.20;5.70;;;;;;;9.27;100.00;96151.75;5026022;28;20440;-59
2022/04/06 08:02:36;;;;;;;5.40;5.00;;;;;;;9.33;100.00;96149.34;5024333;28;20314;-55
2022/04/06 08:05:06;;;;;;;5.37;4.97;;;;;;;9.27;100.00;96154.38;5020592;28;20274;-57
2022/04/06 08:07:39;;;;;;;6.67;5.27;;;;;;;9.37;100.00;96153.22;5006081;28;20314;-55
2022/04/06 08:10:09;;;;;;;5.60;5.20;;;;;;;9.43;100.00;96154.22;5028881;28;20214;-55
2022/04/06 08:12:38;;;;;;;5.53;5.13;;;;;;;9.45;100.00;96155.66;4982227;28;20246;-54
2022/04/06 08:15:08;;;;;;;6.00;5.40;;;;;;;9.41;100.00;96146.50;5023006;28;20207;-59
2022/04/06 08:17:37;;;;;;;9.87;8.37;;;;;;;9.46;100.00;96156.44;5025317;28;20214;-55
2022/04/06 08:20:08;;;;;;;14.90;13.03;;;;;;;9.42;100.00;96150.78;5026353;28;20235;-59
2022/04/06 08:22:36;;;;;;;6.23;5.67;;;;;;;9.37;100.00;96155.84;4999791;28;20235;-52
2022/04/06 08:25:05;;;;;;;5.47;5.07;;;;;;;9.29;100.00;96159.50;5022729;28;20224;-56
2022/04/06 08:27:55;;;;;;;5.70;5.30;;;;;;;9.26;100.00;96147.47;4984111;28;20474;-56
2022/04/06 08:30:23;;;;;;;5.00;4.70;;;;;;;9.40;100.00;96144.88;5022684;28;20200;-55
2022/04/06 08:32:58;;;;;;;5.33;4.93;;;;;;;9.64;100.00;96151.38;5025122;28;20219;-58
2022/04/06 08:35:27;;;;;;;4.90;4.60;;;;;;;9.80;100.00;96154.63;5026356;28;20199;-54
2022/04/06 08:37:55;;;;;;;5.30;4.90;;;;;;;10.00;100.00;96154.63;5005290;28;20460;-57
2022/04/06 08:40:24;;;;;;;5.00;4.50;;;;;;;10.11;100.00;96156.66;5026362;28;20565;-56
2022/04/06 08:42:52;;;;;;;5.77;5.27;;;;;;;10.37;100.00;96154.16;4977582;28;20350;-55
2022/04/06 08:45:21;;;;;;;5.40;4.67;;;;;;;10.47;100.00;96146.59;5022983;28;21336;-60
2022/04/06 08:47:51;;;;;;;4.67;4.37;;;;;;;10.61;100.00;96146.59;5022820;28;20208;-55
2022/04/06 08:50:20;;;;;;;4.67;4.27;;;;;;;10.69;100.00;96147.13;5025338;28;20211;-56
2022/04/06 08:52:48;;;;;;;4.80;4.40;;;;;;;10.68;100.00;96139.41;5003458;28;20223;-56
2022/04/06 08:55:32;;;;;;;4.80;4.40;;;;;;;10.57;100.00;96135.56;5023988;28;20196;-57
2022/04/06 08:58:02;;;;;;;4.30;3.90;;;;;;;10.81;100.00;96147.28;4982413;28;21652;-57
2022/04/06 09:00:31;;;;;;;3.73;3.53;;;;;;;10.87;100.00;96148.31;5023934;28;20204;-57
2022/04/06 09:03:00;;;;;;;5.77;4.83;;;;;;;11.21;100.00;96151.59;5026636;28;20231;-58
2022/04/06 09:05:32;;;;;;;4.00;3.57;;;;;;;11.31;100.00;96148.44;5022098;28;20722;-56
2022/04/06 09:08:00;;;;;;;3.30;3.10;;;;;;;11.69;100.00;96144.91;5024556;28;20353;-60
2022/04/06 09:10:31;;;;;;;3.50;3.20;;;;;;;11.96;100.00;96142.03;5003303;28;20410;-55
2022/04/06 09:13:20;;;;;;;3.10;2.90;;;;;;;12.15;100.00;96145.56;5021863;28;20315;-57
2022/04/06 09:15:55;;;;;;;3.33;3.13;;;;;;;11.86;100.00;96141.72;4980242;28;20216;-56
2022/04/06 09:18:32;;;;;;;3.33;3.13;;;;;;;11.73;100.00;96142.66;5024316;28;20297;-58
2022/04/06 09:21:01;;;;;;;3.40;3.20;;;;;;;12.03;100.00;96134.03;5023369;28;20346;-56
2022/04/06 09:23:31;;;;;;;3.10;2.90;;;;;;;12.09;100.00;96142.97;5022187;28;20204;-54
2022/04/06 09:26:03;;;;;;;3.17;2.97;;;;;;;11.90;100.00;96129.63;5011115;28;20235;-52
2022/04/06 09:28:39;;;;;;;3.47;3.17;;;;;;;11.94;100.00;96140.66;5024768;28;20229;-54
2022/04/06 09:31:09;;;;;;;3.90;3.43;;;;;;;12.16;100.00;96133.91;4983288;28;20228;-56
2022/04/06 09:33:39;;;;;;;3.10;2.90;;;;;;;12.40;100.00;96128.75;5022588;28;20308;-58
2022/04/06 09:36:18;;;;;;;2.97;2.77;;;;;;;12.48;100.00;96129.50;5023250;28;20286;-60
2022/04/06 09:38:48;;;;;;;4.10;3.03;;;;;;;12.23;100.00;96125.06;5001870;28;20208;-59
2022/04/06 09:41:16;;;;;;;3.13;2.93;;;;;;;12.67;100.00;96123.13;5025848;28;20235;-57
2022/04/06 09:43:45;;;;;;;3.30;3.10;;;;;;;12.66;100.00;96123.34;5022510;28;20214;-55
2022/04/06 09:49:09;;;;;;;3.40;3.10;;;;;;;11.82;100.00;96117.44;5019541;28;20200;-58
2022/04/06 09:51:38;;;;;;;3.00;2.80;;;;;;;11.93;100.00;96123.06;5021017;28;20250;-54
2022/04/06 09:54:07;;;;;;;3.77;3.47;;;;;;;11.92;100.00;96119.63;5001931;28;20211;-58
2022/04/06 09:56:36;;;;;;;3.00;2.80;;;;;;;11.82;100.00;96117.44;5017341;28;20204;-54
2022/04/06 09:59:09;;;;;;;2.47;2.37;;;;;;;11.64;100.00;96112.91;5023490;28;20203;-60
2022/04/06 10:01:45;;;;;;;3.20;3.00;;;;;;;11.69;100.00;96113.06;5001578;28;20223;-56
2022/04/06 10:04:21;;;;;;;3.27;3.07;;;;;;;11.37;100.00;96110.50;5027201;28;20203;-54
2022/04/06 10:06:50;;;;;;;4.30;2.70;;;;;;;11.61;100.00;96109.91;5015516;28;20241;-53
2022/04/06 10:09:18;;;;;;;2.90;2.70;;;;;;;11.86;100.00;96108.00;5024305;28;20591;-59
2022/04/06 10:11:46;;;;;;;3.30;3.00;;;;;;;11.89;100.00;96096.16;5000915;28;20219;-58
2022/04/06 10:14:14;;;;;;;3.10;2.80;;;;;;;12.16;100.00;96099.38;5026041;28;20318;-59
2022/04/06 10:16:45;;;;;;;3.00;2.80;;;;;;;12.29;100.00;96086.97;5021633;28;20208;-55
2022/04/06 10:19:15;;;;;;;2.73;2.53;;;;;;;12.46;100.00;96084.53;4981187;28;20600;-54
2022/04/06 10:21:53;;;;;;;2.67;2.57;;;;;;;12.06;100.00;96085.00;5019607;28;20591;-55
2022/04/06 10:24:30;;;;;;;2.23;2.13;;;;;;;11.91;100.00;96078.19;5021626;28;20218;-57
2022/04/06 10:27:06;;;;;;;4.00;3.70;;;;;;;12.09;100.00;96080.06;5001440;28;20744;-55
2022/04/06 10:30:11;;;;;;;4.53;3.47;;;;;;;12.21;100.00;96077.50;5017928;28;20210;-56
2022/04/06 10:32:41;;;;;;;3.23;3.03;;;;;;;12.52;100.00;96067.72;5018475;28;20219;-54
2022/04/06 10:35:32;;;;;;;3.50;3.30;;;;;;;12.41;100.00;96069.28;4984344;28;20299;-60
2022/04/06 10:38:18;;;;;;;2.70;2.50;;;;;;;11.98;100.00;96059.53;5020094;28;20584;-60
2022/04/06 10:40:59;;;;;;;3.10;2.90;;;;;;;12.26;100.00;96069.66;5002465;28;20210;-57
2022/04/06 10:43:52;;;;;;;3.23;3.07;;;;;;;12.43;100.00;96055.78;5024057;28;20205;-56
2022/04/06 10:46:38;;;;;;;3.00;2.80;;;;;;;12.61;100.00;96062.91;5027441;28;20226;-59
2022/04/06 10:49:15;;;;;;;4.10;3.03;;;;;;;12.81;100.00;96048.53;4982964;28;20235;-60
2022/04/06 10:51:48;;;;;;;3.00;2.77;;;;;;;12.65;100.00;96050.00;5017752;28;20223;-58
2022/04/06 10:54:44;;;;;;;3.83;2.90;;;;;;;12.85;100.00;96050.50;5023433;28;20650;-58
2022/04/06 10:57:13;;;;;;;3.03;2.80;;;;;;;12.52;100.00;96043.00;5005150;28;20612;-59
2022/04/06 10:59:42;;;;;;;3.60;3.40;;;;;;;12.16;100.00;96030.34;5013521;28;20209;-55
2022/04/06 11:02:18;;;;;;;3.60;3.30;;;;;;;12.16;100.00;96021.59;5023838;28;20785;-56
2022/04/06 11:04:48;;;;;;;3.57;3.00;;;;;;;12.29;100.00;96039.19;4982666;28;20206;-53
2022/04/06 11:10:06;;;;;;;3.30;3.10;;;;;;;12.41;100.00;96029.44;5022156;28;20228;-56
2022/04/06 11:10:15;;;;;;;3.10;2.90;;;;;;;12.36;100.00;96016.03;5025839;28;20204;-59
2022/04/06 11:13:00;;;;;;;3.87;3.40;;;;;;;12.10;100.00;96019.78;5004650;28;21004;-59
2022/04/06 11:15:37;;;;;;;3.27;3.07;;;;;;;11.75;100.00;96023.81;5021701;28;20200;-58
2022/04/06 11:18:07;;;;;;;3.10;2.90;;;;;;;11.71;100.00;96027.94;5026401;28;20211;-58
2022/04/06 11:20:36;;;;;;;3.20;2.90;;;;;;;11.54;100.00;96017.88;4983922;28;20247;-55
2022/04/06 11:23:07;;;;;;;3.30;3.10;;;;;;;11.83;100.00;96020.88;5026515;28;20298;-58
2022/04/06 11:25:35;;;;;;;3.67;3.37;;;;;;;12.27;100.00;96020.00;5025937;28;20326;-55
2022/04/06 11:28:08;;;;;;;3.13;2.93;;;;;;;12.43;100.00;96022.06;5030177;28;20208;-54
2022/04/06 11:30:38;;;;;;;3.37;3.00;;;;;;;12.82;100.00;96008.44;4983418;28;20605;-60
2022/04/06 11:33:07;;;;;;;2.97;2.77;;;;;;;13.79;100.00;96002.97;5001386;28;20290;-57
2022/04/06 11:35:38;;;;;;;3.17;2.90;;;;;;;14.44;100.00;96003.75;5007097;28;20656;-55
2022/04/06 11:38:08;;;;;;;3.73;2.83;;;;;;;14.41;100.00;96003.44;4997925;28;20204;-57
2022/04/06 11:40:39;;;;;;;3.25;2.95;;;;;;;14.50;100.00;95999.34;5025184;28;20453;-58
2022/04/06 11:43:07;;;;;;;3.20;3.00;;;;;;;14.67;100.00;95993.25;5022330;28;20397;-58
2022/04/06 11:45:37;;;;;;;2.63;2.47;;;;;;;14.51;100.00;95986.81;5006144;28;20208;-58
2022/04/06 11:48:07;;;;;;;2.87;2.70;;;;;;;14.67;100.00;95990.56;5027843;28;20455;-55
2022/04/06 11:50:38;;;;;;;4.87;3.30;;;;;;;14.32;100.00;95981.69;5029921;28;20263;-55
2022/04/06 11:53:08;;;;;;;7.13;3.03;;;;;;;14.26;100.00;95978.09;4998935;28;20443;-55
2022/04/06 11:55:40;;;;;;;5.47;2.63;;;;;;;14.28;100.00;95975.22;5025492;28;20223;-59